createdAt,value
2019-03-31T00:00:30.231Z,80.90
2019-03-31T00:01:30.208Z,80.42
2019-03-31T00:02:30.162Z,80.52
2019-03-31T00:03:30.132Z,80.42
2019-03-31T00:04:30.098Z,80.61
2019-03-31T00:05:30.061Z,80.90
2019-03-31T00:06:30.024Z,80.61
2019-03-31T00:07:29.986Z,80.90
2019-03-31T00:08:29.962Z,80.99
2019-03-31T00:09:29.924Z,80.71
2019-03-31T00:10:29.883Z,80.80
2019-03-31T00:11:29.861Z,80.80
2019-03-31T00:12:29.816Z,80.80
2019-03-31T00:13:29.792Z,80.99
2019-03-31T00:14:29.751Z,80.71
2019-03-31T00:15:29.707Z,80.99
2019-03-31T00:16:29.696Z,80.99
2019-03-31T00:17:29.648Z,80.71
2019-03-31T00:18:29.607Z,81.09
2019-03-31T00:19:29.576Z,81.09
2019-03-31T00:20:29.539Z,80.95
2019-03-31T00:21:29.503Z,80.76
2019-03-31T00:22:29.474Z,81.05
2019-03-31T00:23:29.474Z,81.14
2019-03-31T00:24:29.407Z,80.86
2019-03-31T00:25:29.364Z,81.33
2019-03-31T00:26:29.342Z,81.33
2019-03-31T00:27:29.309Z,81.14
2019-03-31T00:28:29.257Z,81.33
2019-03-31T00:29:29.229Z,81.33
2019-03-31T00:30:29.198Z,81.52
2019-03-31T00:31:29.163Z,81.52
2019-03-31T00:32:29.122Z,81.33
2019-03-31T00:33:29.094Z,81.33
2019-03-31T00:34:29.057Z,81.33
2019-03-31T00:35:29.007Z,81.33
2019-03-31T00:36:28.992Z,81.24
2019-03-31T00:37:28.952Z,81.43
2019-03-31T00:38:28.924Z,81.33
2019-03-31T00:39:28.881Z,81.14
2019-03-31T00:40:28.847Z,81.33
2019-03-31T00:41:28.808Z,81.24
2019-03-31T00:42:28.779Z,80.95
2019-03-31T00:43:28.753Z,81.33
2019-03-31T00:44:28.704Z,81.05
2019-03-31T00:45:28.680Z,81.05
2019-03-31T00:46:28.657Z,81.14
2019-03-31T00:47:28.603Z,81.52
2019-03-31T00:48:28.570Z,81.14
2019-03-31T00:49:28.538Z,81.24
2019-03-31T00:50:28.504Z,81.43
2019-03-31T00:51:28.465Z,81.33
2019-03-31T00:52:28.430Z,81.24
2019-03-31T00:53:28.391Z,81.33
2019-03-31T00:54:28.361Z,81.43
2019-03-31T00:55:28.325Z,81.62
2019-03-31T00:56:28.284Z,81.24
2019-03-31T00:57:28.270Z,81.52
2019-03-31T00:58:28.219Z,81.81
2019-03-31T00:59:28.195Z,81.33
2019-03-31T01:00:28.153Z,81.52
2019-03-31T01:01:36.428Z,81.81
2019-03-31T01:02:28.112Z,81.62
2019-03-31T01:03:28.043Z,81.62
2019-03-31T01:04:28.005Z,81.81
2019-03-31T01:05:27.966Z,81.62
2019-03-31T01:06:27.949Z,81.81
2019-03-31T01:07:27.904Z,81.86
2019-03-31T01:08:27.865Z,82.00
2019-03-31T01:09:27.839Z,81.77
2019-03-31T01:10:27.801Z,81.90
2019-03-31T01:11:27.779Z,81.58
2019-03-31T01:12:27.727Z,81.71
2019-03-31T01:13:27.701Z,82.00
2019-03-31T01:14:27.669Z,81.67
2019-03-31T01:15:27.626Z,81.77
2019-03-31T01:16:27.589Z,81.96
2019-03-31T01:17:27.546Z,81.77
2019-03-31T01:18:27.521Z,82.05
2019-03-31T01:19:27.479Z,81.96
2019-03-31T01:20:27.445Z,82.15
2019-03-31T01:21:27.407Z,82.05
2019-03-31T01:22:27.372Z,82.15
2019-03-31T01:23:27.337Z,82.15
2019-03-31T01:24:27.306Z,81.96
2019-03-31T01:25:27.281Z,81.96
2019-03-31T01:26:27.231Z,81.86
2019-03-31T01:27:27.199Z,81.96
2019-03-31T01:28:27.162Z,82.24
2019-03-31T01:29:27.129Z,82.05
2019-03-31T01:30:27.101Z,82.24
2019-03-31T01:31:28.407Z,81.96
2019-03-31T01:32:27.026Z,82.34
2019-03-31T01:33:26.992Z,81.96
2019-03-31T01:34:26.946Z,82.05
2019-03-31T01:35:26.952Z,82.15
2019-03-31T01:36:26.890Z,82.24
2019-03-31T01:37:26.853Z,82.24
2019-03-31T01:38:26.817Z,82.05
2019-03-31T01:39:26.775Z,81.96
2019-03-31T01:40:26.738Z,82.15
2019-03-31T01:41:26.708Z,81.96
2019-03-31T01:42:26.674Z,82.05
2019-03-31T01:43:26.632Z,82.43
2019-03-31T01:44:26.603Z,82.81
2019-03-31T01:45:26.561Z,82.43
2019-03-31T01:46:26.526Z,81.96
2019-03-31T01:47:26.501Z,82.81
2019-03-31T01:48:26.451Z,82.24
2019-03-31T01:49:26.436Z,82.81
2019-03-31T01:50:26.401Z,82.05
2019-03-31T01:51:26.355Z,82.53
2019-03-31T01:52:26.321Z,81.96
2019-03-31T01:53:26.287Z,82.05
2019-03-31T01:54:26.242Z,82.05
2019-03-31T01:55:26.221Z,82.24
2019-03-31T01:56:26.177Z,82.24
2019-03-31T01:57:26.144Z,82.05
2019-03-31T01:58:26.111Z,82.71
2019-03-31T01:59:26.080Z,82.05
2019-03-31T02:00:26.032Z,82.62
2019-03-31T02:01:26.002Z,81.86
2019-03-31T02:02:25.967Z,81.86
2019-03-31T02:03:25.932Z,81.96
2019-03-31T02:04:25.892Z,82.34
2019-03-31T02:05:25.859Z,82.24
2019-03-31T02:06:25.825Z,82.34
2019-03-31T02:07:25.794Z,82.24
2019-03-31T02:08:25.744Z,82.24
2019-03-31T02:09:25.722Z,82.34
2019-03-31T02:10:25.733Z,82.34
2019-03-31T02:11:25.642Z,81.86
2019-03-31T02:12:25.623Z,81.96
2019-03-31T02:13:25.573Z,81.92
2019-03-31T02:14:25.539Z,82.20
2019-03-31T02:15:25.508Z,82.20
2019-03-31T02:16:25.491Z,82.96
2019-03-31T02:17:25.439Z,83.34
2019-03-31T02:18:25.422Z,83.06
2019-03-31T02:19:25.359Z,82.77
2019-03-31T02:20:25.324Z,83.06
2019-03-31T02:21:25.294Z,83.25
2019-03-31T02:22:25.253Z,82.39
2019-03-31T02:23:25.225Z,82.96
2019-03-31T02:24:25.184Z,83.15
2019-03-31T02:25:25.152Z,83.15
2019-03-31T02:26:25.115Z,83.34
2019-03-31T02:27:25.098Z,83.34
2019-03-31T02:28:25.039Z,83.15
2019-03-31T02:29:25.010Z,83.15
2019-03-31T02:30:24.967Z,82.77
2019-03-31T02:31:24.940Z,83.34
2019-03-31T02:32:25.129Z,83.06
2019-03-31T02:33:24.877Z,83.53
2019-03-31T02:34:24.831Z,83.72
2019-03-31T02:35:24.795Z,83.72
2019-03-31T02:36:24.759Z,83.06
2019-03-31T02:37:24.724Z,83.25
2019-03-31T02:38:24.684Z,83.15
2019-03-31T02:39:24.654Z,83.44
2019-03-31T02:40:24.613Z,83.44
2019-03-31T02:41:24.583Z,83.06
2019-03-31T02:42:24.541Z,83.15
2019-03-31T02:43:24.512Z,83.53
2019-03-31T02:44:24.469Z,82.77
2019-03-31T02:45:24.433Z,83.25
2019-03-31T02:46:24.399Z,83.44
2019-03-31T02:47:24.360Z,83.72
2019-03-31T02:48:24.325Z,83.44
2019-03-31T02:49:24.303Z,83.25
2019-03-31T02:50:24.251Z,83.06
2019-03-31T02:51:24.223Z,83.06
2019-03-31T02:52:24.187Z,83.15
2019-03-31T02:53:24.152Z,83.06
2019-03-31T02:54:24.118Z,83.72
2019-03-31T02:55:24.076Z,83.72
2019-03-31T02:56:24.062Z,83.15
2019-03-31T02:57:24.008Z,83.25
2019-03-31T02:58:23.969Z,83.53
2019-03-31T02:59:23.940Z,83.25
2019-03-31T03:00:23.898Z,83.62
2019-03-31T03:01:23.867Z,83.62
2019-03-31T03:02:40.653Z,83.53
2019-03-31T03:03:23.930Z,83.34
2019-03-31T03:04:23.758Z,83.62
2019-03-31T03:05:23.731Z,83.59
2019-03-31T03:06:23.687Z,83.11
2019-03-31T03:07:23.647Z,83.49
2019-03-31T03:08:23.622Z,83.59
2019-03-31T03:09:23.584Z,83.59
2019-03-31T03:10:23.546Z,83.49
2019-03-31T03:11:23.493Z,83.68
2019-03-31T03:12:23.468Z,83.78
2019-03-31T03:13:23.436Z,83.59
2019-03-31T03:14:23.399Z,83.68
2019-03-31T03:15:23.363Z,83.11
2019-03-31T03:16:23.329Z,83.68
2019-03-31T03:17:23.296Z,83.49
2019-03-31T03:18:23.266Z,83.78
2019-03-31T03:19:23.212Z,83.87
2019-03-31T03:20:23.189Z,83.87
2019-03-31T03:21:24.706Z,83.97
2019-03-31T03:22:23.104Z,83.78
2019-03-31T03:23:23.080Z,83.97
2019-03-31T03:24:23.038Z,83.68
2019-03-31T03:25:23.004Z,83.49
2019-03-31T03:26:22.984Z,83.78
2019-03-31T03:27:22.937Z,83.97
2019-03-31T03:28:22.890Z,83.87
2019-03-31T03:29:22.849Z,83.49
2019-03-31T03:30:22.928Z,83.59
2019-03-31T03:31:22.788Z,84.06
2019-03-31T03:32:22.751Z,83.87
2019-03-31T03:33:22.787Z,83.78
2019-03-31T03:34:22.691Z,83.87
2019-03-31T03:35:22.649Z,83.78
2019-03-31T03:36:22.604Z,83.97
2019-03-31T03:37:22.583Z,83.78
2019-03-31T03:38:22.533Z,83.59
2019-03-31T03:39:22.499Z,83.87
2019-03-31T03:40:22.464Z,84.25
2019-03-31T03:41:22.440Z,83.97
2019-03-31T03:42:22.389Z,83.97
2019-03-31T03:43:22.427Z,84.06
2019-03-31T03:44:22.318Z,84.25
2019-03-31T03:45:22.392Z,83.87
2019-03-31T03:46:22.249Z,83.78
2019-03-31T03:47:22.204Z,83.87
2019-03-31T03:48:22.178Z,83.87
2019-03-31T03:49:22.139Z,83.87
2019-03-31T03:50:22.095Z,84.06
2019-03-31T03:51:22.069Z,83.87
2019-03-31T03:52:22.035Z,83.78
2019-03-31T03:53:21.996Z,84.06
2019-03-31T03:54:21.961Z,83.97
2019-03-31T03:55:21.934Z,84.06
2019-03-31T03:56:21.885Z,84.06
2019-03-31T03:57:21.852Z,84.06
2019-03-31T03:58:21.821Z,83.97
2019-03-31T03:59:21.771Z,84.06
2019-03-31T04:00:21.756Z,84.25
2019-03-31T04:01:21.716Z,84.25
2019-03-31T04:02:21.694Z,84.06
2019-03-31T04:03:30.135Z,84.34
2019-03-31T04:04:21.604Z,84.11
2019-03-31T04:05:21.569Z,84.11
2019-03-31T04:06:21.515Z,84.11
2019-03-31T04:07:21.499Z,84.06
2019-03-31T04:08:21.451Z,84.34
2019-03-31T04:09:21.413Z,83.97
2019-03-31T04:10:21.385Z,84.53
2019-03-31T04:11:22.022Z,84.01
2019-03-31T04:12:21.314Z,84.40
2019-03-31T04:13:21.277Z,84.01
2019-03-31T04:14:21.234Z,84.21
2019-03-31T04:15:21.196Z,84.30
2019-03-31T04:16:21.167Z,84.21
2019-03-31T04:17:21.137Z,84.59
2019-03-31T04:18:21.094Z,84.21
2019-03-31T04:19:21.050Z,84.30
2019-03-31T04:20:21.018Z,84.11
2019-03-31T04:21:20.978Z,84.21
2019-03-31T04:22:20.954Z,84.11
2019-03-31T04:23:20.907Z,84.30
2019-03-31T04:24:20.868Z,84.01
2019-03-31T04:25:20.838Z,84.30
2019-03-31T04:26:20.806Z,84.40
2019-03-31T04:27:20.777Z,84.40
2019-03-31T04:28:20.725Z,84.68
2019-03-31T04:29:20.694Z,84.78
2019-03-31T04:30:20.670Z,84.30
2019-03-31T04:31:20.626Z,83.92
2019-03-31T04:32:20.582Z,84.68
2019-03-31T04:33:20.547Z,84.01
2019-03-31T04:34:20.512Z,84.01
2019-03-31T04:35:20.485Z,84.40
2019-03-31T04:36:20.445Z,84.78
2019-03-31T04:37:20.410Z,84.21
2019-03-31T04:38:20.378Z,84.01
2019-03-31T04:39:20.333Z,85.25
2019-03-31T04:40:20.316Z,84.87
2019-03-31T04:41:20.256Z,84.21
2019-03-31T04:42:20.222Z,84.59
2019-03-31T04:43:20.197Z,84.40
2019-03-31T04:44:20.143Z,84.49
2019-03-31T04:45:20.108Z,85.06
2019-03-31T04:46:20.077Z,85.25
2019-03-31T04:47:20.042Z,84.30
2019-03-31T04:48:20.025Z,84.68
2019-03-31T04:49:19.970Z,84.21
2019-03-31T04:50:19.929Z,85.16
2019-03-31T04:51:19.894Z,84.30
2019-03-31T04:52:19.847Z,84.49
2019-03-31T04:53:19.818Z,84.30
2019-03-31T04:54:19.782Z,84.40
2019-03-31T04:55:19.742Z,85.35
2019-03-31T04:56:19.712Z,84.21
2019-03-31T04:57:19.679Z,84.21
2019-03-31T04:58:19.634Z,84.97
2019-03-31T04:59:19.602Z,84.78
2019-03-31T05:00:19.562Z,84.21
2019-03-31T05:01:19.530Z,84.49
2019-03-31T05:02:19.493Z,84.40
2019-03-31T05:03:19.455Z,84.87
2019-03-31T05:04:19.413Z,84.49
2019-03-31T05:05:19.375Z,84.68
2019-03-31T05:06:19.344Z,84.59
2019-03-31T05:07:19.324Z,84.78
2019-03-31T05:08:19.265Z,85.06
2019-03-31T05:09:19.235Z,84.59
2019-03-31T05:10:19.195Z,84.01
2019-03-31T05:11:19.155Z,84.68
2019-03-31T05:12:19.128Z,84.59
2019-03-31T05:13:19.094Z,84.97
2019-03-31T05:14:19.050Z,84.59
2019-03-31T05:15:19.024Z,84.78
2019-03-31T05:16:18.983Z,84.21
2019-03-31T05:17:18.948Z,84.40
2019-03-31T05:18:18.910Z,84.30
2019-03-31T05:19:18.885Z,84.68
2019-03-31T05:20:18.835Z,84.59
2019-03-31T05:21:18.795Z,84.68
2019-03-31T05:22:18.765Z,84.59
2019-03-31T05:23:18.727Z,84.97
2019-03-31T05:24:18.686Z,84.40
2019-03-31T05:25:18.654Z,84.59
2019-03-31T05:26:18.608Z,84.59
2019-03-31T05:27:18.576Z,84.49
2019-03-31T05:28:18.536Z,84.49
2019-03-31T05:29:18.502Z,84.40
2019-03-31T05:30:18.482Z,84.68
2019-03-31T05:31:18.429Z,84.78
2019-03-31T05:32:18.399Z,85.06
2019-03-31T05:33:18.364Z,84.59
2019-03-31T05:34:19.646Z,84.59
2019-03-31T05:35:18.282Z,84.59
2019-03-31T05:36:18.241Z,84.78
2019-03-31T05:37:18.209Z,84.97
2019-03-31T05:38:18.165Z,85.06
2019-03-31T05:39:18.143Z,84.78
2019-03-31T05:40:18.107Z,84.68
2019-03-31T05:41:18.073Z,85.06
2019-03-31T05:42:18.045Z,84.68
2019-03-31T05:43:17.991Z,85.06
2019-03-31T05:44:17.953Z,85.06
2019-03-31T05:45:17.927Z,84.59
2019-03-31T05:46:17.883Z,84.87
2019-03-31T05:47:17.847Z,84.59
2019-03-31T05:48:17.811Z,84.59
2019-03-31T05:49:17.775Z,84.87
2019-03-31T05:50:27.026Z,84.68
2019-03-31T05:52:22.151Z,84.21
2019-03-31T05:53:22.091Z,84.30
2019-03-31T05:54:22.061Z,84.59
2019-03-31T05:55:22.016Z,84.40
2019-03-31T05:56:21.977Z,85.16
2019-03-31T05:57:21.950Z,85.16
2019-03-31T05:58:21.897Z,84.97
2019-03-31T05:59:21.876Z,84.87
2019-03-31T06:00:21.831Z,85.25
2019-03-31T06:01:21.812Z,85.25
2019-03-31T06:02:21.765Z,85.25
2019-03-31T06:03:21.728Z,84.97
2019-03-31T06:04:32.622Z,84.97
2019-03-31T06:05:21.651Z,85.06
2019-03-31T06:06:21.626Z,84.78
2019-03-31T06:07:21.578Z,84.87
2019-03-31T06:08:21.553Z,85.06
2019-03-31T06:09:21.507Z,84.87
2019-03-31T06:10:21.477Z,84.97
2019-03-31T06:11:21.428Z,84.97
2019-03-31T06:12:21.413Z,84.97
2019-03-31T06:13:21.369Z,84.78
2019-03-31T06:14:21.323Z,85.16
2019-03-31T06:15:21.285Z,84.78
2019-03-31T06:16:21.247Z,84.78
2019-03-31T06:17:21.212Z,84.78
2019-03-31T06:18:21.183Z,84.59
2019-03-31T06:19:21.138Z,84.72
2019-03-31T06:20:21.096Z,85.01
2019-03-31T06:21:21.074Z,84.97
2019-03-31T06:22:21.038Z,84.82
2019-03-31T06:23:20.997Z,85.01
2019-03-31T06:24:20.954Z,84.72
2019-03-31T06:25:20.925Z,84.63
2019-03-31T06:26:20.883Z,84.53
2019-03-31T06:27:20.849Z,84.82
2019-03-31T06:28:20.810Z,84.82
2019-03-31T06:29:20.792Z,84.53
2019-03-31T06:30:20.741Z,84.72
2019-03-31T06:31:20.713Z,85.20
2019-03-31T06:32:20.659Z,84.63
2019-03-31T06:33:20.637Z,84.91
2019-03-31T06:34:20.592Z,84.72
2019-03-31T06:35:20.564Z,84.91
2019-03-31T06:36:20.534Z,84.91
2019-03-31T06:37:20.494Z,84.63
2019-03-31T06:38:20.457Z,84.63
2019-03-31T06:39:20.423Z,84.91
2019-03-31T06:40:20.375Z,84.44
2019-03-31T06:41:20.340Z,84.44
2019-03-31T06:42:20.316Z,84.34
2019-03-31T06:43:20.278Z,84.72
2019-03-31T06:44:20.244Z,84.34
2019-03-31T06:45:20.208Z,85.39
2019-03-31T06:46:20.164Z,84.53
2019-03-31T06:47:20.145Z,85.20
2019-03-31T06:48:20.092Z,84.44
2019-03-31T06:49:20.055Z,85.11
2019-03-31T06:50:20.029Z,84.72
2019-03-31T06:51:19.995Z,84.20
2019-03-31T06:52:19.954Z,84.67
2019-03-31T06:53:19.925Z,84.86
2019-03-31T06:54:19.868Z,84.86
2019-03-31T06:55:19.841Z,85.43
2019-03-31T06:56:19.810Z,84.67
2019-03-31T06:57:19.775Z,84.39
2019-03-31T06:58:19.730Z,84.67
2019-03-31T06:59:19.697Z,84.67
2019-03-31T07:00:19.660Z,84.39
2019-03-31T07:01:19.622Z,85.05
2019-03-31T07:02:19.585Z,84.77
2019-03-31T07:03:19.564Z,84.86
2019-03-31T07:04:19.536Z,84.48
2019-03-31T07:05:19.480Z,85.05
2019-03-31T07:06:19.440Z,84.39
2019-03-31T07:07:19.415Z,84.29
2019-03-31T07:08:19.375Z,84.29
2019-03-31T07:09:19.345Z,84.39
2019-03-31T07:10:19.308Z,84.58
2019-03-31T07:11:19.269Z,84.10
2019-03-31T07:12:19.227Z,84.86
2019-03-31T07:13:19.196Z,84.77
2019-03-31T07:14:19.165Z,84.29
2019-03-31T07:15:19.133Z,84.67
2019-03-31T07:16:19.101Z,84.29
2019-03-31T07:17:19.060Z,84.67
2019-03-31T07:18:19.026Z,84.67
2019-03-31T07:19:18.990Z,84.86
2019-03-31T07:20:18.947Z,84.95
2019-03-31T07:21:18.910Z,84.67
2019-03-31T07:22:18.870Z,85.24
2019-03-31T07:23:18.846Z,85.19
2019-03-31T07:24:18.813Z,84.24
2019-03-31T07:25:18.812Z,85.00
2019-03-31T07:26:18.730Z,84.81
2019-03-31T07:27:18.702Z,84.43
2019-03-31T07:28:18.666Z,84.33
2019-03-31T07:29:18.636Z,85.00
2019-03-31T07:30:18.591Z,85.10
2019-03-31T07:31:18.563Z,85.28
2019-03-31T07:32:18.517Z,84.91
2019-03-31T07:33:18.535Z,85.10
2019-03-31T07:34:18.453Z,84.38
2019-03-31T07:35:18.989Z,84.47
2019-03-31T07:36:18.383Z,84.56
2019-03-31T07:37:18.343Z,84.76
2019-03-31T07:38:18.626Z,84.38
2019-03-31T07:39:18.294Z,84.95
2019-03-31T07:40:18.492Z,84.38
2019-03-31T07:41:18.467Z,85.04
2019-03-31T07:42:18.221Z,84.56
2019-03-31T07:43:18.209Z,84.47
2019-03-31T07:44:18.120Z,84.76
2019-03-31T07:45:18.071Z,84.66
2019-03-31T07:46:18.038Z,84.38
2019-03-31T07:47:17.993Z,84.28
2019-03-31T07:48:17.959Z,84.76
2019-03-31T07:49:17.932Z,84.23
2019-03-31T07:50:17.898Z,84.04
2019-03-31T07:51:17.857Z,84.61
2019-03-31T07:52:17.822Z,84.61
2019-03-31T07:53:17.804Z,84.70
2019-03-31T07:54:17.752Z,84.61
2019-03-31T07:55:17.733Z,84.80
2019-03-31T07:56:17.697Z,83.65
2019-03-31T07:57:17.643Z,84.04
2019-03-31T07:58:17.623Z,84.13
2019-03-31T07:59:17.582Z,84.61
2019-03-31T08:00:17.540Z,84.27
2019-03-31T08:01:17.519Z,83.85
2019-03-31T08:02:17.474Z,83.89
2019-03-31T08:03:17.439Z,83.89
2019-03-31T08:04:17.400Z,83.80
2019-03-31T08:05:17.366Z,84.17
2019-03-31T08:06:17.346Z,83.70
2019-03-31T08:07:17.306Z,84.17
2019-03-31T08:08:17.265Z,83.80
2019-03-31T08:09:17.244Z,83.89
2019-03-31T08:10:17.194Z,83.89
2019-03-31T08:11:17.365Z,84.27
2019-03-31T08:12:17.130Z,83.74
2019-03-31T08:13:17.100Z,84.03
2019-03-31T08:14:17.066Z,83.93
2019-03-31T08:15:17.018Z,84.03
2019-03-31T08:16:16.989Z,83.84
2019-03-31T08:17:16.953Z,83.55
2019-03-31T08:18:16.920Z,83.36
2019-03-31T08:19:16.895Z,83.84
2019-03-31T08:20:16.855Z,82.83
2019-03-31T08:21:16.824Z,83.12
2019-03-31T08:22:16.799Z,82.54
2019-03-31T08:23:16.756Z,82.73
2019-03-31T08:24:16.730Z,82.54
2019-03-31T08:25:16.686Z,82.92
2019-03-31T08:26:16.660Z,82.92
2019-03-31T08:27:16.637Z,83.12
2019-03-31T08:28:16.601Z,82.40
2019-03-31T08:29:16.565Z,83.16
2019-03-31T08:30:16.515Z,82.49
2019-03-31T08:31:16.486Z,82.97
2019-03-31T08:32:16.451Z,82.49
2019-03-31T08:33:16.410Z,82.49
2019-03-31T08:34:16.382Z,81.82
2019-03-31T08:35:16.354Z,82.30
2019-03-31T08:36:16.310Z,81.92
2019-03-31T08:37:16.287Z,81.82
2019-03-31T08:38:16.255Z,81.96
2019-03-31T08:39:16.226Z,82.01
2019-03-31T08:40:16.202Z,81.96
2019-03-31T08:41:16.152Z,81.96
2019-03-31T08:42:16.128Z,81.48
2019-03-31T08:43:16.093Z,81.58
2019-03-31T08:44:16.070Z,80.72
2019-03-31T08:45:16.016Z,80.91
2019-03-31T08:46:16.010Z,82.06
2019-03-31T08:47:15.967Z,81.01
2019-03-31T08:48:15.926Z,81.77
2019-03-31T08:49:15.973Z,81.10
2019-03-31T08:50:15.860Z,81.10
2019-03-31T08:51:15.825Z,81.20
2019-03-31T08:52:15.805Z,81.04
2019-03-31T08:53:15.765Z,80.95
2019-03-31T08:54:15.732Z,81.24
2019-03-31T08:55:15.692Z,79.80
2019-03-31T08:56:15.665Z,80.95
2019-03-31T08:57:15.623Z,80.76
2019-03-31T08:58:15.597Z,80.85
2019-03-31T08:59:15.562Z,80.95
2019-03-31T09:00:15.533Z,80.76
2019-03-31T09:01:15.496Z,80.38
2019-03-31T09:02:15.495Z,80.76
2019-03-31T09:03:15.433Z,80.57
2019-03-31T09:04:15.399Z,79.99
2019-03-31T09:05:15.371Z,79.99
2019-03-31T09:06:15.328Z,80.76
2019-03-31T09:07:15.311Z,80.19
2019-03-31T09:08:15.284Z,80.09
2019-03-31T09:09:15.236Z,79.90
2019-03-31T09:10:15.221Z,80.13
2019-03-31T09:11:15.185Z,79.90
2019-03-31T09:12:15.145Z,79.56
2019-03-31T09:13:15.109Z,79.94
2019-03-31T09:14:15.074Z,79.14
2019-03-31T09:15:15.039Z,79.43
2019-03-31T09:16:15.022Z,79.90
2019-03-31T09:17:14.983Z,80.09
2019-03-31T09:18:14.947Z,79.94
2019-03-31T09:19:14.914Z,79.71
2019-03-31T09:20:14.882Z,79.56
2019-03-31T09:21:14.861Z,79.46
2019-03-31T09:22:14.819Z,78.79
2019-03-31T09:23:14.788Z,79.27
2019-03-31T09:24:14.756Z,79.94
2019-03-31T09:25:14.728Z,80.04
2019-03-31T09:26:14.693Z,79.08
2019-03-31T09:27:14.659Z,79.94
2019-03-31T09:28:14.629Z,79.08
2019-03-31T09:29:14.600Z,78.99
2019-03-31T09:30:14.564Z,78.99
2019-03-31T09:31:14.530Z,79.56
2019-03-31T09:32:14.493Z,79.56
2019-03-31T09:33:14.465Z,78.85
2019-03-31T09:34:14.439Z,79.08
2019-03-31T09:35:14.423Z,79.36
2019-03-31T09:36:16.356Z,79.27
2019-03-31T09:37:14.354Z,79.08
2019-03-31T09:38:14.309Z,78.99
2019-03-31T09:39:14.278Z,78.79
2019-03-31T09:40:14.249Z,78.99
2019-03-31T09:41:14.221Z,79.27
2019-03-31T09:42:14.180Z,79.27
2019-03-31T09:43:14.150Z,78.89
2019-03-31T09:44:14.125Z,79.27
2019-03-31T09:45:14.077Z,79.50
2019-03-31T09:46:14.058Z,80.17
2019-03-31T09:47:14.029Z,78.45
2019-03-31T09:48:13.990Z,79.08
2019-03-31T09:49:13.968Z,78.60
2019-03-31T09:50:17.008Z,78.99
2019-03-31T09:51:13.901Z,78.79
2019-03-31T09:52:13.870Z,79.17
2019-03-31T09:53:13.845Z,79.41
2019-03-31T09:54:13.803Z,79.12
2019-03-31T09:55:13.766Z,78.60
2019-03-31T09:56:15.340Z,78.60
2019-03-31T09:57:13.702Z,79.69
2019-03-31T09:58:13.696Z,78.55
2019-03-31T09:59:13.655Z,79.22
2019-03-31T10:00:13.612Z,79.60
2019-03-31T10:01:13.588Z,78.58
2019-03-31T10:02:13.554Z,78.16
2019-03-31T10:03:13.521Z,78.49
2019-03-31T10:04:13.489Z,78.39
2019-03-31T10:05:13.477Z,78.49
2019-03-31T10:06:13.458Z,78.49
2019-03-31T10:07:13.406Z,77.82
2019-03-31T10:08:13.365Z,77.95
2019-03-31T10:09:13.341Z,78.53
2019-03-31T10:10:13.313Z,78.63
2019-03-31T10:11:13.284Z,77.38
2019-03-31T10:12:13.247Z,78.43
2019-03-31T10:13:13.254Z,78.43
2019-03-31T10:14:13.198Z,78.19
2019-03-31T10:15:13.181Z,77.19
2019-03-31T10:16:13.131Z,78.43
2019-03-31T10:17:13.133Z,78.63
2019-03-31T10:18:13.092Z,77.86
2019-03-31T10:19:13.059Z,77.90
2019-03-31T10:20:13.033Z,77.46
2019-03-31T10:21:13.018Z,77.42
2019-03-31T10:22:12.978Z,77.70
2019-03-31T10:23:13.691Z,78.32
2019-03-31T10:24:12.915Z,77.46
2019-03-31T10:25:13.430Z,76.94
2019-03-31T10:26:15.951Z,77.09
2019-03-31T10:27:12.828Z,77.48
2019-03-31T10:28:12.794Z,77.25
2019-03-31T10:29:12.798Z,78.01
2019-03-31T10:30:12.752Z,79.10
2019-03-31T10:31:12.716Z,77.95
2019-03-31T10:32:12.676Z,78.01
2019-03-31T10:33:12.658Z,78.20
2019-03-31T10:34:12.627Z,78.20
2019-03-31T10:35:12.606Z,78.01
2019-03-31T10:36:12.970Z,77.92
2019-03-31T10:37:12.542Z,78.39
2019-03-31T10:38:12.504Z,78.39
2019-03-31T10:39:12.485Z,78.78
2019-03-31T10:40:12.443Z,78.34
2019-03-31T10:41:12.416Z,78.34
2019-03-31T10:42:12.388Z,77.99
2019-03-31T10:43:12.358Z,77.86
2019-03-31T10:44:12.337Z,77.95
2019-03-31T10:45:12.307Z,77.09
2019-03-31T10:46:12.273Z,78.24
2019-03-31T10:47:12.302Z,77.48
2019-03-31T10:48:20.202Z,77.86
2019-03-31T10:49:12.196Z,78.34
2019-03-31T10:50:12.154Z,77.76
2019-03-31T10:51:12.133Z,77.95
2019-03-31T10:52:12.098Z,78.43
2019-03-31T10:53:12.074Z,77.48
2019-03-31T10:54:12.058Z,77.76
2019-03-31T10:55:12.023Z,77.76
2019-03-31T10:56:11.989Z,77.25
2019-03-31T10:57:12.069Z,77.92
2019-03-31T10:58:12.028Z,77.92
2019-03-31T10:59:11.917Z,77.63
2019-03-31T11:00:11.874Z,78.49
2019-03-31T11:01:11.868Z,78.49
2019-03-31T11:02:11.815Z,78.58
2019-03-31T11:03:11.788Z,78.68
2019-03-31T11:04:11.755Z,77.63
2019-03-31T11:05:11.727Z,77.63
2019-03-31T11:06:11.703Z,78.24
2019-03-31T11:07:11.670Z,77.86
2019-03-31T11:08:11.639Z,78.58
2019-03-31T11:09:11.648Z,78.63
2019-03-31T11:10:11.593Z,78.30
2019-03-31T11:11:11.560Z,78.07
2019-03-31T11:12:11.526Z,78.26
2019-03-31T11:13:11.501Z,78.16
2019-03-31T11:14:11.469Z,78.36
2019-03-31T11:15:11.445Z,79.12
2019-03-31T11:16:11.411Z,78.36
2019-03-31T11:17:11.379Z,79.22
2019-03-31T11:18:11.355Z,78.64
2019-03-31T11:19:11.314Z,79.31
2019-03-31T11:20:11.296Z,78.36
2019-03-31T11:21:11.274Z,78.74
2019-03-31T11:22:11.237Z,78.74
2019-03-31T11:23:11.224Z,79.64
2019-03-31T11:24:11.185Z,78.97
2019-03-31T11:25:21.040Z,78.26
2019-03-31T11:26:11.126Z,78.87
2019-03-31T11:27:11.099Z,78.26
2019-03-31T11:28:11.089Z,79.25
2019-03-31T11:29:11.036Z,78.39
2019-03-31T11:30:11.001Z,78.20
2019-03-31T11:31:10.980Z,78.20
2019-03-31T11:32:10.941Z,78.01
2019-03-31T11:33:10.917Z,78.45
2019-03-31T11:34:10.885Z,78.49
2019-03-31T11:35:10.874Z,78.68
2019-03-31T11:36:10.835Z,78.20
2019-03-31T11:37:13.726Z,78.20
2019-03-31T11:38:10.847Z,78.26
2019-03-31T11:39:10.740Z,78.07
2019-03-31T11:40:10.718Z,78.87
2019-03-31T11:41:10.691Z,78.68
2019-03-31T11:42:10.654Z,78.49
2019-03-31T11:43:10.631Z,78.97
2019-03-31T11:44:10.747Z,78.30
2019-03-31T11:45:10.566Z,78.30
2019-03-31T11:46:10.540Z,78.30
2019-03-31T11:47:10.513Z,78.58
2019-03-31T11:48:10.490Z,78.20
2019-03-31T11:49:10.455Z,78.58
2019-03-31T11:50:10.420Z,78.39
2019-03-31T11:51:10.384Z,78.49
2019-03-31T11:52:10.365Z,77.92
2019-03-31T11:53:10.443Z,78.30
2019-03-31T11:54:10.346Z,78.43
2019-03-31T11:55:10.315Z,77.76
2019-03-31T11:56:10.321Z,77.86
2019-03-31T11:57:10.240Z,77.67
2019-03-31T11:58:10.228Z,76.90
2019-03-31T11:59:10.158Z,76.65
2019-03-31T12:00:10.133Z,76.37
2019-03-31T12:01:10.134Z,76.08
2019-03-31T12:02:10.078Z,76.23
2019-03-31T12:03:10.043Z,76.33
2019-03-31T12:04:10.017Z,76.77
2019-03-31T12:05:09.981Z,76.86
2019-03-31T12:06:11.350Z,77.25
2019-03-31T12:07:09.938Z,77.34
2019-03-31T12:08:09.998Z,77.06
2019-03-31T12:09:09.876Z,77.06
2019-03-31T12:10:09.901Z,76.48
2019-03-31T12:11:09.814Z,76.33
2019-03-31T12:12:09.783Z,76.04
2019-03-31T12:13:09.746Z,76.23
2019-03-31T12:14:09.768Z,75.24
2019-03-31T12:15:09.692Z,76.04
2019-03-31T12:16:09.672Z,75.66
2019-03-31T12:17:09.662Z,75.81
2019-03-31T12:18:09.603Z,76.20
2019-03-31T12:19:09.571Z,76.29
2019-03-31T12:20:09.559Z,76.96
2019-03-31T12:21:09.521Z,76.48
2019-03-31T12:22:09.490Z,75.27
2019-03-31T12:23:09.462Z,75.09
2019-03-31T12:24:09.436Z,74.51
2019-03-31T12:25:09.451Z,75.18
2019-03-31T12:26:09.377Z,74.70
2019-03-31T12:27:09.373Z,73.94
2019-03-31T12:28:09.315Z,74.22
2019-03-31T12:29:09.277Z,73.94
2019-03-31T12:30:09.260Z,73.75
2019-03-31T12:31:09.242Z,72.79
2019-03-31T12:32:09.732Z,72.79
2019-03-31T12:33:09.167Z,73.36
2019-03-31T12:34:09.138Z,73.52
2019-03-31T12:35:09.113Z,74.38
2019-03-31T12:36:09.080Z,75.24
2019-03-31T12:37:09.049Z,75.34
2019-03-31T12:38:09.027Z,74.38
2019-03-31T12:39:08.996Z,74.76
2019-03-31T12:40:09.005Z,74.38
2019-03-31T12:41:08.928Z,74.76
2019-03-31T12:42:08.898Z,75.05
2019-03-31T12:43:08.878Z,73.94
2019-03-31T12:44:08.870Z,73.75
2019-03-31T12:45:08.816Z,73.94
2019-03-31T12:46:08.777Z,74.22
2019-03-31T12:47:08.775Z,73.17
2019-03-31T12:48:08.739Z,72.98
2019-03-31T12:49:08.690Z,71.45
2019-03-31T12:50:08.695Z,72.50
2019-03-31T12:51:08.679Z,71.64
2019-03-31T12:52:08.619Z,71.64
2019-03-31T12:53:08.583Z,71.73